Airfield :
LOGIN :

Register | Disclaimer

   EN    FR    IT 

 










Legend :    VFR   Marginal VFR   IFR   Intensive IFR   Very Intensive IFR
Visi :
Ceiling :
>= 8 km
>= 3000ft
5 to 8 km
1000 to 3000 ft
1500m to 5 km
500 to 1000 ft
800 to 1500m
200 to 500 ft
< 800m
< 200 ft
Symbols :   Thunderstorms  Fog  Heavy snow  Heavy precipitations  Wind > 20 kt
SIGMETs :     Misc.  Thunderstorms  Icing  Turbulence  Mountain Waves  Volcanic Ashes






- Airport Elevation : 584 ft


LFPV - Villacoublay Vélizy

CURRENT METAR :
  • 111500Z AUTO 15014KT 120V180 9000 +TSRA ///CB 23/18 Q1015 TEMPO 18015G30KT 3000 -TSRA

EXPIRED METARs :
  • 111430Z AUTO 18010G20KT 9999 +TSRA FEW017/// OVC120/// ///CB 24/18 Q1014 TEMPO 2000 TSRA
  • 111400Z AUTO VRB12G23KT 6000 +TSRA FEW022/// BKN084/// OVC110/// ///CB 26/16 Q1014 TEMPO 2000 TSRA
  • 111330Z AUTO VRB05KT 9999 2300 TSRA FEW023/// BKN076/// BKN098/// ///CB 29/19 Q1014 TEMPO VRB15G25KT 2000 TSRA
  • 111300Z AUTO VRB03KT 9999 TS ///CB 33/15 Q1014 TEMPO VRB15G25KT 2000 TSRA NSC
  • 111230Z AUTO 15006KT 090V230 9999 ///CB 34/16 Q1014 TEMPO VRB15G25KT 2000 TSRA NSC

TAF TAF LFPV
Valid from the 11 at 15:00 until the 12 at 15:00 UTC


111400Z 1115/1215 24010KT CAVOK
TEMPO 1115/1118 18015G30KT 3000 -TSRA SCT025 BKN090CB
PROB40
TEMPO 1122/1201 18015G25KT 4900 SHRA SCT080CB
BECMG 1204/1206 10005KT



MET'MAP, your aeronautical weather chart ! - Copyright ORBIFLY December 2007 - Disclaimer

ORBIFLY MET'MAP TEAM :

Programming & Development : Alexandra Zaïnal
Concept & original design : Baudouin d'Aumeries
Assistance for programming : Marc-Olivier Méhu
Technical & hardware support : Manuel Goepfert

Contact : metmap@orbifly.com




SOURCES & CREDITS :

   NOAA